sensor_id;sensor_type;location;lat;lon;timestamp;P1;durP1;ratioP1;P2;durP2;ratioP2
76814;SDS011;65768;49.906;19.384;2022-12-20T00:01:27;5.60;;;2.40;;
76814;SDS011;65768;49.906;19.384;2022-12-20T00:03:57;4.60;;;2.10;;
76814;SDS011;65768;49.906;19.384;2022-12-20T00:06:29;4.70;;;2.10;;
76814;SDS011;65768;49.906;19.384;2022-12-20T00:08:58;3.60;;;2.00;;
76814;SDS011;65768;49.906;19.384;2022-12-20T00:11:28;6.10;;;2.00;;
76814;SDS011;65768;49.906;19.384;2022-12-20T00:13:56;3.70;;;1.50;;
76814;SDS011;65768;49.906;19.384;2022-12-20T00:16:26;3.40;;;1.70;;
76814;SDS011;65768;49.906;19.384;2022-12-20T00:18:56;4.40;;;2.30;;
76814;SDS011;65768;49.906;19.384;2022-12-20T00:21:26;3.20;;;2.20;;
76814;SDS011;65768;49.906;19.384;2022-12-20T00:23:54;3.10;;;1.60;;
76814;SDS011;65768;49.906;19.384;2022-12-20T00:26:27;4.10;;;2.20;;
76814;SDS011;65768;49.906;19.384;2022-12-20T00:28:58;6.00;;;2.90;;
76814;SDS011;65768;49.906;19.384;2022-12-20T00:31:27;3.50;;;1.70;;
76814;SDS011;65768;49.906;19.384;2022-12-20T00:33:57;5.70;;;2.40;;
76814;SDS011;65768;49.906;19.384;2022-12-20T00:36:27;3.60;;;2.10;;
76814;SDS011;65768;49.906;19.384;2022-12-20T00:38:56;3.80;;;1.90;;
76814;SDS011;65768;49.906;19.384;2022-12-20T00:41:28;4.80;;;2.60;;
76814;SDS011;65768;49.906;19.384;2022-12-20T00:43:57;5.30;;;2.50;;
76814;SDS011;65768;49.906;19.384;2022-12-20T00:46:26;3.50;;;1.80;;
76814;SDS011;65768;49.906;19.384;2022-12-20T00:48:54;4.70;;;2.30;;
76814;SDS011;65768;49.906;19.384;2022-12-20T00:51:24;6.90;;;2.00;;
76814;SDS011;65768;49.906;19.384;2022-12-20T00:53:54;6.10;;;2.20;;
76814;SDS011;65768;49.906;19.384;2022-12-20T00:56:22;4.50;;;2.50;;
76814;SDS011;65768;49.906;19.384;2022-12-20T00:58:50;5.90;;;2.60;;
76814;SDS011;65768;49.906;19.384;2022-12-20T01:03:49;4.70;;;2.20;;
76814;SDS011;65768;49.906;19.384;2022-12-20T01:06:19;4.60;;;1.90;;
76814;SDS011;65768;49.906;19.384;2022-12-20T01:08:47;6.80;;;2.80;;
76814;SDS011;65768;49.906;19.384;2022-12-20T01:11:16;7.10;;;2.70;;
76814;SDS011;65768;49.906;19.384;2022-12-20T01:13:50;7.00;;;3.10;;
76814;SDS011;65768;49.906;19.384;2022-12-20T01:16:21;6.00;;;3.00;;
76814;SDS011;65768;49.906;19.384;2022-12-20T01:18:50;4.60;;;2.10;;
76814;SDS011;65768;49.906;19.384;2022-12-20T01:21:19;7.70;;;2.50;;
76814;SDS011;65768;49.906;19.384;2022-12-20T01:23:48;5.00;;;2.30;;
76814;SDS011;65768;49.906;19.384;2022-12-20T01:26:18;4.10;;;2.10;;
76814;SDS011;65768;49.906;19.384;2022-12-20T01:28:51;5.20;;;2.00;;
76814;SDS011;65768;49.906;19.384;2022-12-20T01:31:21;6.10;;;2.80;;
76814;SDS011;65768;49.906;19.384;2022-12-20T01:33:50;4.70;;;2.90;;
76814;SDS011;65768;49.906;19.384;2022-12-20T01:36:20;6.20;;;2.70;;
76814;SDS011;65768;49.906;19.384;2022-12-20T01:38:57;5.50;;;2.40;;
76814;SDS011;65768;49.906;19.384;2022-12-20T01:41:26;4.10;;;2.30;;
76814;SDS011;65768;49.906;19.384;2022-12-20T01:43:56;4.60;;;1.70;;
76814;SDS011;65768;49.906;19.384;2022-12-20T01:46:28;5.20;;;2.40;;
76814;SDS011;65768;49.906;19.384;2022-12-20T01:51:33;7.40;;;3.30;;
76814;SDS011;65768;49.906;19.384;2022-12-20T01:54:07;6.00;;;2.90;;
76814;SDS011;65768;49.906;19.384;2022-12-20T01:56:42;4.80;;;2.50;;
76814;SDS011;65768;49.906;19.384;2022-12-20T01:59:14;5.10;;;2.60;;
76814;SDS011;65768;49.906;19.384;2022-12-20T02:01:42;4.30;;;2.20;;
76814;SDS011;65768;49.906;19.384;2022-12-20T02:04:11;6.90;;;2.80;;
76814;SDS011;65768;49.906;19.384;2022-12-20T02:06:39;5.60;;;3.20;;
76814;SDS011;65768;49.906;19.384;2022-12-20T02:09:07;6.30;;;2.60;;
76814;SDS011;65768;49.906;19.384;2022-12-20T02:14:41;5.80;;;2.20;;
76814;SDS011;65768;49.906;19.384;2022-12-20T02:31:32;18.50;;;8.40;;
76814;SDS011;65768;49.906;19.384;2022-12-20T02:34:06;25.00;;;11.40;;
76814;SDS011;65768;49.906;19.384;2022-12-20T02:36:36;31.20;;;14.10;;
76814;SDS011;65768;49.906;19.384;2022-12-20T02:39:06;50.30;;;22.40;;
76814;SDS011;65768;49.906;19.384;2022-12-20T02:41:36;43.90;;;17.80;;
76814;SDS011;65768;49.906;19.384;2022-12-20T02:44:10;50.10;;;22.40;;
76814;SDS011;65768;49.906;19.384;2022-12-20T02:47:00;40.20;;;21.30;;
76814;SDS011;65768;49.906;19.384;2022-12-20T02:49:33;52.00;;;23.80;;
76814;SDS011;65768;49.906;19.384;2022-12-20T02:52:05;56.90;;;28.70;;
76814;SDS011;65768;49.906;19.384;2022-12-20T02:54:36;64.20;;;32.30;;
76814;SDS011;65768;49.906;19.384;2022-12-20T02:57:07;66.80;;;28.80;;
76814;SDS011;65768;49.906;19.384;2022-12-20T02:59:46;58.80;;;25.40;;
76814;SDS011;65768;49.906;19.384;2022-12-20T03:03:11;73.40;;;32.70;;
76814;SDS011;65768;49.906;19.384;2022-12-20T03:05:54;56.10;;;24.90;;
76814;SDS011;65768;49.906;19.384;2022-12-20T03:08:23;73.20;;;30.80;;
76814;SDS011;65768;49.906;19.384;2022-12-20T03:10:52;55.40;;;27.70;;
76814;SDS011;65768;49.906;19.384;2022-12-20T03:13:21;94.70;;;44.10;;
76814;SDS011;65768;49.906;19.384;2022-12-20T03:15:51;84.80;;;38.20;;
76814;SDS011;65768;49.906;19.384;2022-12-20T03:18:18;66.80;;;31.60;;
76814;SDS011;65768;49.906;19.384;2022-12-20T03:20:46;60.10;;;29.10;;
76814;SDS011;65768;49.906;19.384;2022-12-20T03:23:14;63.80;;;33.30;;
76814;SDS011;65768;49.906;19.384;2022-12-20T03:25:42;75.50;;;32.90;;
76814;SDS011;65768;49.906;19.384;2022-12-20T03:28:10;82.40;;;41.10;;
76814;SDS011;65768;49.906;19.384;2022-12-20T03:30:38;84.90;;;39.00;;
76814;SDS011;65768;49.906;19.384;2022-12-20T03:33:06;77.40;;;34.00;;
76814;SDS011;65768;49.906;19.384;2022-12-20T03:35:33;82.90;;;35.00;;
76814;SDS011;65768;49.906;19.384;2022-12-20T03:38:01;63.10;;;26.00;;
76814;SDS011;65768;49.906;19.384;2022-12-20T03:40:29;58.20;;;27.40;;
76814;SDS011;65768;49.906;19.384;2022-12-20T03:42:57;68.50;;;32.40;;
76814;SDS011;65768;49.906;19.384;2022-12-20T03:45:25;66.30;;;30.70;;
76814;SDS011;65768;49.906;19.384;2022-12-20T03:47:53;54.20;;;25.50;;
76814;SDS011;65768;49.906;19.384;2022-12-20T03:50:20;76.30;;;31.70;;
76814;SDS011;65768;49.906;19.384;2022-12-20T03:52:48;76.70;;;36.60;;
76814;SDS011;65768;49.906;19.384;2022-12-20T03:55:16;78.90;;;33.40;;
76814;SDS011;65768;49.906;19.384;2022-12-20T03:57:44;75.10;;;33.30;;
76814;SDS011;65768;49.906;19.384;2022-12-20T04:00:12;62.10;;;27.80;;
76814;SDS011;65768;49.906;19.384;2022-12-20T04:02:40;62.50;;;28.70;;
76814;SDS011;65768;49.906;19.384;2022-12-20T04:05:08;80.00;;;35.70;;
76814;SDS011;65768;49.906;19.384;2022-12-20T04:07:36;79.00;;;36.10;;
76814;SDS011;65768;49.906;19.384;2022-12-20T04:10:05;69.00;;;31.70;;
76814;SDS011;65768;49.906;19.384;2022-12-20T04:12:34;61.40;;;24.10;;
76814;SDS011;65768;49.906;19.384;2022-12-20T04:15:02;73.40;;;29.50;;
76814;SDS011;65768;49.906;19.384;2022-12-20T04:17:30;54.60;;;26.80;;
76814;SDS011;65768;49.906;19.384;2022-12-20T04:19:58;56.70;;;28.40;;
76814;SDS011;65768;49.906;19.384;2022-12-20T04:22:48;47.50;;;22.70;;
76814;SDS011;65768;49.906;19.384;2022-12-20T04:25:18;66.70;;;32.30;;
76814;SDS011;65768;49.906;19.384;2022-12-20T04:27:47;40.30;;;18.40;;
76814;SDS011;65768;49.906;19.384;2022-12-20T04:30:15;59.00;;;26.80;;
76814;SDS011;65768;49.906;19.384;2022-12-20T04:32:43;86.10;;;43.80;;
76814;SDS011;65768;49.906;19.384;2022-12-20T04:35:11;68.40;;;30.90;;
76814;SDS011;65768;49.906;19.384;2022-12-20T04:37:39;63.20;;;27.20;;
76814;SDS011;65768;49.906;19.384;2022-12-20T04:40:07;56.00;;;26.00;;
76814;SDS011;65768;49.906;19.384;2022-12-20T04:42:35;54.90;;;23.80;;
76814;SDS011;65768;49.906;19.384;2022-12-20T04:45:04;62.90;;;28.70;;
76814;SDS011;65768;49.906;19.384;2022-12-20T04:47:32;57.10;;;26.80;;
76814;SDS011;65768;49.906;19.384;2022-12-20T04:50:00;52.80;;;27.00;;
76814;SDS011;65768;49.906;19.384;2022-12-20T04:52:28;56.20;;;24.70;;
76814;SDS011;65768;49.906;19.384;2022-12-20T04:55:14;49.30;;;22.40;;
76814;SDS011;65768;49.906;19.384;2022-12-20T04:57:42;54.20;;;25.40;;
76814;SDS011;65768;49.906;19.384;2022-12-20T05:00:11;54.00;;;25.10;;
76814;SDS011;65768;49.906;19.384;2022-12-20T05:02:41;56.50;;;24.80;;
76814;SDS011;65768;49.906;19.384;2022-12-20T05:05:09;59.60;;;25.30;;
76814;SDS011;65768;49.906;19.384;2022-12-20T05:07:37;67.70;;;33.90;;
76814;SDS011;65768;49.906;19.384;2022-12-20T05:10:05;83.70;;;40.30;;
76814;SDS011;65768;49.906;19.384;2022-12-20T05:15:58;67.60;;;35.10;;
76814;SDS011;65768;49.906;19.384;2022-12-20T05:18:27;76.90;;;40.30;;
76814;SDS011;65768;49.906;19.384;2022-12-20T05:20:55;70.10;;;34.50;;
76814;SDS011;65768;49.906;19.384;2022-12-20T05:23:43;74.50;;;34.70;;
76814;SDS011;65768;49.906;19.384;2022-12-20T05:26:32;74.80;;;33.60;;
76814;SDS011;65768;49.906;19.384;2022-12-20T05:29:03;68.90;;;31.40;;
76814;SDS011;65768;49.906;19.384;2022-12-20T05:31:32;66.90;;;30.30;;
76814;SDS011;65768;49.906;19.384;2022-12-20T05:34:00;91.10;;;39.80;;
76814;SDS011;65768;49.906;19.384;2022-12-20T05:36:28;98.30;;;43.60;;
76814;SDS011;65768;49.906;19.384;2022-12-20T05:38:56;77.10;;;34.90;;
76814;SDS011;65768;49.906;19.384;2022-12-20T05:41:24;65.00;;;31.20;;
76814;SDS011;65768;49.906;19.384;2022-12-20T05:43:52;56.10;;;30.00;;
76814;SDS011;65768;49.906;19.384;2022-12-20T05:46:20;61.20;;;27.20;;
76814;SDS011;65768;49.906;19.384;2022-12-20T05:48:48;60.00;;;27.90;;
76814;SDS011;65768;49.906;19.384;2022-12-20T05:51:16;65.10;;;27.00;;
76814;SDS011;65768;49.906;19.384;2022-12-20T05:53:44;65.20;;;27.40;;
76814;SDS011;65768;49.906;19.384;2022-12-20T05:56:12;64.60;;;28.30;;
76814;SDS011;65768;49.906;19.384;2022-12-20T05:58:40;79.50;;;36.80;;
76814;SDS011;65768;49.906;19.384;2022-12-20T06:01:08;76.00;;;33.80;;
76814;SDS011;65768;49.906;19.384;2022-12-20T06:03:37;68.10;;;31.40;;
76814;SDS011;65768;49.906;19.384;2022-12-20T06:06:07;66.00;;;28.80;;
76814;SDS011;65768;49.906;19.384;2022-12-20T06:08:35;55.40;;;26.80;;
76814;SDS011;65768;49.906;19.384;2022-12-20T06:11:03;61.30;;;26.70;;
76814;SDS011;65768;49.906;19.384;2022-12-20T06:13:31;61.90;;;29.20;;
76814;SDS011;65768;49.906;19.384;2022-12-20T06:15:59;56.70;;;27.50;;
76814;SDS011;65768;49.906;19.384;2022-12-20T06:18:27;66.60;;;28.00;;
76814;SDS011;65768;49.906;19.384;2022-12-20T06:20:56;67.00;;;29.40;;
76814;SDS011;65768;49.906;19.384;2022-12-20T06:23:23;50.20;;;22.20;;
76814;SDS011;65768;49.906;19.384;2022-12-20T06:25:51;61.60;;;31.80;;
76814;SDS011;65768;49.906;19.384;2022-12-20T06:28:20;56.80;;;26.10;;
76814;SDS011;65768;49.906;19.384;2022-12-20T06:30:51;59.20;;;26.80;;
76814;SDS011;65768;49.906;19.384;2022-12-20T06:33:23;58.70;;;29.10;;
76814;SDS011;65768;49.906;19.384;2022-12-20T06:35:51;62.50;;;28.50;;
76814;SDS011;65768;49.906;19.384;2022-12-20T06:38:19;69.40;;;29.80;;
76814;SDS011;65768;49.906;19.384;2022-12-20T06:40:47;49.20;;;23.10;;
76814;SDS011;65768;49.906;19.384;2022-12-20T06:43:15;67.90;;;27.70;;
76814;SDS011;65768;49.906;19.384;2022-12-20T06:45:43;79.70;;;33.70;;
76814;SDS011;65768;49.906;19.384;2022-12-20T06:48:11;80.20;;;33.70;;
76814;SDS011;65768;49.906;19.384;2022-12-20T06:50:39;70.50;;;30.10;;
76814;SDS011;65768;49.906;19.384;2022-12-20T06:53:07;69.70;;;31.10;;
76814;SDS011;65768;49.906;19.384;2022-12-20T06:55:51;70.60;;;31.60;;
76814;SDS011;65768;49.906;19.384;2022-12-20T06:58:19;77.80;;;30.70;;
76814;SDS011;65768;49.906;19.384;2022-12-20T07:00:47;73.40;;;30.60;;
76814;SDS011;65768;49.906;19.384;2022-12-20T07:03:15;75.10;;;31.90;;
76814;SDS011;65768;49.906;19.384;2022-12-20T07:05:44;77.00;;;30.30;;
76814;SDS011;65768;49.906;19.384;2022-12-20T07:08:12;79.90;;;34.20;;
76814;SDS011;65768;49.906;19.384;2022-12-20T07:10:39;96.00;;;39.40;;
76814;SDS011;65768;49.906;19.384;2022-12-20T07:13:08;65.10;;;30.50;;
76814;SDS011;65768;49.906;19.384;2022-12-20T07:15:35;71.60;;;30.60;;
76814;SDS011;65768;49.906;19.384;2022-12-20T07:18:04;63.10;;;28.30;;
76814;SDS011;65768;49.906;19.384;2022-12-20T07:20:33;55.80;;;25.70;;
76814;SDS011;65768;49.906;19.384;2022-12-20T07:25:53;59.20;;;26.20;;
76814;SDS011;65768;49.906;19.384;2022-12-20T07:28:22;60.90;;;25.70;;
76814;SDS011;65768;49.906;19.384;2022-12-20T07:30:51;50.80;;;23.50;;
76814;SDS011;65768;49.906;19.384;2022-12-20T07:33:20;55.10;;;25.80;;
76814;SDS011;65768;49.906;19.384;2022-12-20T07:35:48;55.20;;;26.90;;
76814;SDS011;65768;49.906;19.384;2022-12-20T07:38:16;67.50;;;31.60;;
76814;SDS011;65768;49.906;19.384;2022-12-20T07:40:44;64.20;;;29.60;;
76814;SDS011;65768;49.906;19.384;2022-12-20T07:43:12;51.30;;;24.80;;
76814;SDS011;65768;49.906;19.384;2022-12-20T07:45:40;55.00;;;27.90;;
76814;SDS011;65768;49.906;19.384;2022-12-20T07:48:08;57.00;;;27.40;;
76814;SDS011;65768;49.906;19.384;2022-12-20T07:50:36;70.40;;;32.30;;
76814;SDS011;65768;49.906;19.384;2022-12-20T07:53:04;63.10;;;28.80;;
76814;SDS011;65768;49.906;19.384;2022-12-20T07:55:33;62.60;;;27.90;;
76814;SDS011;65768;49.906;19.384;2022-12-20T07:58:04;52.30;;;26.30;;
76814;SDS011;65768;49.906;19.384;2022-12-20T08:03:06;75.20;;;31.60;;
76814;SDS011;65768;49.906;19.384;2022-12-20T08:05:40;64.20;;;30.80;;
76814;SDS011;65768;49.906;19.384;2022-12-20T08:08:13;61.90;;;30.00;;
76814;SDS011;65768;49.906;19.384;2022-12-20T08:10:42;69.80;;;31.70;;
76814;SDS011;65768;49.906;19.384;2022-12-20T08:13:11;76.50;;;37.50;;
76814;SDS011;65768;49.906;19.384;2022-12-20T08:15:40;80.10;;;41.20;;
76814;SDS011;65768;49.906;19.384;2022-12-20T08:18:09;74.50;;;35.40;;
76814;SDS011;65768;49.906;19.384;2022-12-20T08:20:37;73.70;;;34.10;;
76814;SDS011;65768;49.906;19.384;2022-12-20T08:23:05;67.80;;;33.70;;
76814;SDS011;65768;49.906;19.384;2022-12-20T08:25:33;73.50;;;36.20;;
76814;SDS011;65768;49.906;19.384;2022-12-20T08:28:01;94.40;;;42.00;;
76814;SDS011;65768;49.906;19.384;2022-12-20T08:30:30;75.00;;;33.10;;
76814;SDS011;65768;49.906;19.384;2022-12-20T08:32:58;83.90;;;37.70;;
76814;SDS011;65768;49.906;19.384;2022-12-20T08:35:26;71.40;;;33.50;;
76814;SDS011;65768;49.906;19.384;2022-12-20T08:37:54;68.20;;;30.40;;
76814;SDS011;65768;49.906;19.384;2022-12-20T08:40:23;66.80;;;28.90;;
76814;SDS011;65768;49.906;19.384;2022-12-20T08:42:54;58.20;;;26.70;;
76814;SDS011;65768;49.906;19.384;2022-12-20T08:45:24;70.20;;;31.10;;
76814;SDS011;65768;49.906;19.384;2022-12-20T08:47:52;79.50;;;35.50;;
76814;SDS011;65768;49.906;19.384;2022-12-20T08:50:21;79.60;;;36.30;;
76814;SDS011;65768;49.906;19.384;2022-12-20T08:52:49;57.20;;;25.40;;
76814;SDS011;65768;49.906;19.384;2022-12-20T08:55:17;64.70;;;30.00;;
76814;SDS011;65768;49.906;19.384;2022-12-20T08:57:45;64.00;;;28.10;;
76814;SDS011;65768;49.906;19.384;2022-12-20T09:00:13;68.10;;;32.40;;
76814;SDS011;65768;49.906;19.384;2022-12-20T09:02:41;65.40;;;31.20;;
76814;SDS011;65768;49.906;19.384;2022-12-20T09:05:10;62.30;;;29.30;;
76814;SDS011;65768;49.906;19.384;2022-12-20T09:07:38;66.10;;;29.10;;
76814;SDS011;65768;49.906;19.384;2022-12-20T09:10:06;72.70;;;31.70;;
76814;SDS011;65768;49.906;19.384;2022-12-20T09:12:35;61.50;;;28.20;;
76814;SDS011;65768;49.906;19.384;2022-12-20T09:15:05;64.90;;;30.80;;
76814;SDS011;65768;49.906;19.384;2022-12-20T09:17:34;61.60;;;28.30;;
76814;SDS011;65768;49.906;19.384;2022-12-20T09:20:03;61.70;;;27.40;;
76814;SDS011;65768;49.906;19.384;2022-12-20T09:22:31;63.90;;;32.10;;
76814;SDS011;65768;49.906;19.384;2022-12-20T09:25:00;59.80;;;30.00;;
76814;SDS011;65768;49.906;19.384;2022-12-20T09:27:28;71.80;;;32.70;;
76814;SDS011;65768;49.906;19.384;2022-12-20T09:29:55;72.30;;;32.10;;
76814;SDS011;65768;49.906;19.384;2022-12-20T09:32:23;70.40;;;36.00;;
76814;SDS011;65768;49.906;19.384;2022-12-20T09:34:52;71.30;;;34.80;;
76814;SDS011;65768;49.906;19.384;2022-12-20T09:37:20;73.40;;;31.50;;
76814;SDS011;65768;49.906;19.384;2022-12-20T09:39:48;72.00;;;32.50;;
76814;SDS011;65768;49.906;19.384;2022-12-20T09:42:18;73.20;;;32.60;;
76814;SDS011;65768;49.906;19.384;2022-12-20T09:44:51;66.90;;;29.00;;
76814;SDS011;65768;49.906;19.384;2022-12-20T09:47:23;60.70;;;24.50;;
76814;SDS011;65768;49.906;19.384;2022-12-20T09:49:54;70.40;;;29.40;;
76814;SDS011;65768;49.906;19.384;2022-12-20T09:52:27;65.40;;;27.90;;
76814;SDS011;65768;49.906;19.384;2022-12-20T09:55:33;66.80;;;31.40;;
76814;SDS011;65768;49.906;19.384;2022-12-20T10:01:15;64.60;;;27.80;;
76814;SDS011;65768;49.906;19.384;2022-12-20T10:03:46;78.20;;;30.70;;
76814;SDS011;65768;49.906;19.384;2022-12-20T10:06:17;69.90;;;27.30;;
76814;SDS011;65768;49.906;19.384;2022-12-20T10:08:52;68.40;;;30.90;;
76814;SDS011;65768;49.906;19.384;2022-12-20T10:14:41;73.40;;;31.40;;
76814;SDS011;65768;49.906;19.384;2022-12-20T10:17:15;69.40;;;32.90;;
76814;SDS011;65768;49.906;19.384;2022-12-20T10:22:29;71.20;;;30.50;;
76814;SDS011;65768;49.906;19.384;2022-12-20T10:25:18;68.10;;;31.10;;
76814;SDS011;65768;49.906;19.384;2022-12-20T10:27:53;66.20;;;29.00;;
76814;SDS011;65768;49.906;19.384;2022-12-20T10:30:24;60.00;;;26.60;;
76814;SDS011;65768;49.906;19.384;2022-12-20T10:32:55;66.00;;;28.80;;
76814;SDS011;65768;49.906;19.384;2022-12-20T10:35:59;58.10;;;28.20;;
76814;SDS011;65768;49.906;19.384;2022-12-20T10:38:18;59.60;;;25.60;;
76814;SDS011;65768;49.906;19.384;2022-12-20T10:43:21;50.40;;;24.40;;
76814;SDS011;65768;49.906;19.384;2022-12-20T10:46:06;76.50;;;31.70;;
76814;SDS011;65768;49.906;19.384;2022-12-20T10:48:37;80.00;;;34.10;;
76814;SDS011;65768;49.906;19.384;2022-12-20T10:53:59;60.90;;;30.10;;
76814;SDS011;65768;49.906;19.384;2022-12-20T10:56:30;76.80;;;38.30;;
76814;SDS011;65768;49.906;19.384;2022-12-20T11:01:44;72.60;;;30.60;;
76814;SDS011;65768;49.906;19.384;2022-12-20T11:04:31;54.50;;;24.10;;
76814;SDS011;65768;49.906;19.384;2022-12-20T11:07:02;68.70;;;28.70;;
76814;SDS011;65768;49.906;19.384;2022-12-20T11:09:53;63.50;;;27.40;;
76814;SDS011;65768;49.906;19.384;2022-12-20T11:12:26;51.10;;;23.20;;
76814;SDS011;65768;49.906;19.384;2022-12-20T11:15:08;50.60;;;24.40;;
76814;SDS011;65768;49.906;19.384;2022-12-20T11:17:46;43.30;;;19.70;;
76814;SDS011;65768;49.906;19.384;2022-12-20T11:24:13;61.40;;;25.30;;
76814;SDS011;65768;49.906;19.384;2022-12-20T11:37:33;76.00;;;26.80;;
76814;SDS011;65768;49.906;19.384;2022-12-20T11:40:17;111.90;;;37.00;;
76814;SDS011;65768;49.906;19.384;2022-12-20T11:45:37;77.20;;;31.10;;
76814;SDS011;65768;49.906;19.384;2022-12-20T11:54:01;51.80;;;22.30;;
76814;SDS011;65768;49.906;19.384;2022-12-20T11:56:38;48.00;;;20.20;;
76814;SDS011;65768;49.906;19.384;2022-12-20T11:59:16;49.40;;;21.10;;
76814;SDS011;65768;49.906;19.384;2022-12-20T12:01:47;37.40;;;17.20;;
76814;SDS011;65768;49.906;19.384;2022-12-20T12:04:26;53.60;;;21.60;;
76814;SDS011;65768;49.906;19.384;2022-12-20T12:07:09;40.60;;;18.10;;
76814;SDS011;65768;49.906;19.384;2022-12-20T12:12:26;44.10;;;18.80;;
76814;SDS011;65768;49.906;19.384;2022-12-20T12:20:09;36.90;;;17.40;;
76814;SDS011;65768;49.906;19.384;2022-12-20T12:22:44;50.90;;;21.40;;
76814;SDS011;65768;49.906;19.384;2022-12-20T12:25:16;41.60;;;19.20;;
76814;SDS011;65768;49.906;19.384;2022-12-20T12:27:45;48.20;;;20.60;;
76814;SDS011;65768;49.906;19.384;2022-12-20T12:30:14;41.40;;;18.90;;
76814;SDS011;65768;49.906;19.384;2022-12-20T12:32:57;47.70;;;21.20;;
76814;SDS011;65768;49.906;19.384;2022-12-20T12:41:36;38.90;;;17.10;;
76814;SDS011;65768;49.906;19.384;2022-12-20T12:46:54;42.00;;;21.10;;
76814;SDS011;65768;49.906;19.384;2022-12-20T12:49:28;44.10;;;19.50;;
76814;SDS011;65768;49.906;19.384;2022-12-20T12:51:59;41.80;;;20.80;;
76814;SDS011;65768;49.906;19.384;2022-12-20T12:54:38;45.50;;;19.80;;
76814;SDS011;65768;49.906;19.384;2022-12-20T12:57:15;44.40;;;20.80;;
76814;SDS011;65768;49.906;19.384;2022-12-20T12:59:45;40.30;;;17.60;;
76814;SDS011;65768;49.906;19.384;2022-12-20T13:04:55;29.00;;;13.00;;
76814;SDS011;65768;49.906;19.384;2022-12-20T13:09:55;45.80;;;22.60;;
76814;SDS011;65768;49.906;19.384;2022-12-20T13:15:45;38.90;;;19.00;;
76814;SDS011;65768;49.906;19.384;2022-12-20T13:17:59;42.10;;;19.20;;
76814;SDS011;65768;49.906;19.384;2022-12-20T13:20:29;41.80;;;18.40;;
76814;SDS011;65768;49.906;19.384;2022-12-20T13:25:36;48.50;;;20.40;;
76814;SDS011;65768;49.906;19.384;2022-12-20T13:30:45;48.10;;;19.20;;
76814;SDS011;65768;49.906;19.384;2022-12-20T13:33:16;66.20;;;25.90;;
76814;SDS011;65768;49.906;19.384;2022-12-20T13:35:53;75.70;;;27.90;;
76814;SDS011;65768;49.906;19.384;2022-12-20T13:43:58;68.90;;;28.30;;
76814;SDS011;65768;49.906;19.384;2022-12-20T13:49:10;65.70;;;28.80;;
76814;SDS011;65768;49.906;19.384;2022-12-20T13:51:44;64.10;;;27.40;;
76814;SDS011;65768;49.906;19.384;2022-12-20T13:54:18;78.50;;;33.10;;
76814;SDS011;65768;49.906;19.384;2022-12-20T13:56:48;78.20;;;33.20;;
76814;SDS011;65768;49.906;19.384;2022-12-20T13:59:25;78.90;;;34.40;;
76814;SDS011;65768;49.906;19.384;2022-12-20T14:01:59;58.30;;;26.80;;
76814;SDS011;65768;49.906;19.384;2022-12-20T14:04:39;72.50;;;34.00;;
76814;SDS011;65768;49.906;19.384;2022-12-20T14:07:13;63.10;;;30.90;;
76814;SDS011;65768;49.906;19.384;2022-12-20T14:09:45;63.20;;;29.10;;
76814;SDS011;65768;49.906;19.384;2022-12-20T14:12:14;62.10;;;28.30;;
76814;SDS011;65768;49.906;19.384;2022-12-20T14:14:48;70.00;;;30.40;;
76814;SDS011;65768;49.906;19.384;2022-12-20T14:17:24;65.00;;;29.00;;
76814;SDS011;65768;49.906;19.384;2022-12-20T14:20:29;66.50;;;31.10;;
76814;SDS011;65768;49.906;19.384;2022-12-20T14:25:33;76.90;;;32.90;;
76814;SDS011;65768;49.906;19.384;2022-12-20T14:28:08;81.60;;;35.20;;
76814;SDS011;65768;49.906;19.384;2022-12-20T14:31:05;58.50;;;26.50;;
76814;SDS011;65768;49.906;19.384;2022-12-20T14:33:49;70.60;;;27.60;;
76814;SDS011;65768;49.906;19.384;2022-12-20T14:36:19;61.00;;;27.80;;
76814;SDS011;65768;49.906;19.384;2022-12-20T14:38:49;73.50;;;31.40;;
76814;SDS011;65768;49.906;19.384;2022-12-20T14:41:35;72.70;;;31.70;;
76814;SDS011;65768;49.906;19.384;2022-12-20T14:44:21;64.40;;;29.40;;
76814;SDS011;65768;49.906;19.384;2022-12-20T14:49:29;49.40;;;23.20;;
76814;SDS011;65768;49.906;19.384;2022-12-20T14:54:41;60.40;;;26.10;;
76814;SDS011;65768;49.906;19.384;2022-12-20T14:57:19;56.10;;;23.90;;
76814;SDS011;65768;49.906;19.384;2022-12-20T15:00:04;58.50;;;25.90;;
76814;SDS011;65768;49.906;19.384;2022-12-20T15:13:37;65.10;;;27.60;;
76814;SDS011;65768;49.906;19.384;2022-12-20T15:16:44;69.30;;;29.90;;
76814;SDS011;65768;49.906;19.384;2022-12-20T15:19:01;63.20;;;29.00;;
76814;SDS011;65768;49.906;19.384;2022-12-20T15:21:31;57.70;;;25.70;;
76814;SDS011;65768;49.906;19.384;2022-12-20T15:24:00;56.30;;;24.30;;
76814;SDS011;65768;49.906;19.384;2022-12-20T15:26:34;56.70;;;23.80;;
76814;SDS011;65768;49.906;19.384;2022-12-20T15:29:05;48.40;;;21.00;;
76814;SDS011;65768;49.906;19.384;2022-12-20T15:31:34;58.50;;;24.00;;
76814;SDS011;65768;49.906;19.384;2022-12-20T15:34:03;52.20;;;23.20;;
76814;SDS011;65768;49.906;19.384;2022-12-20T15:36:40;54.40;;;23.10;;
76814;SDS011;65768;49.906;19.384;2022-12-20T15:39:09;56.60;;;23.90;;
76814;SDS011;65768;49.906;19.384;2022-12-20T15:41:39;50.60;;;20.30;;
76814;SDS011;65768;49.906;19.384;2022-12-20T15:44:12;66.00;;;28.40;;
76814;SDS011;65768;49.906;19.384;2022-12-20T15:46:43;57.70;;;24.00;;
76814;SDS011;65768;49.906;19.384;2022-12-20T15:49:15;54.10;;;23.70;;
76814;SDS011;65768;49.906;19.384;2022-12-20T15:51:46;54.80;;;23.30;;
76814;SDS011;65768;49.906;19.384;2022-12-20T15:54:23;52.60;;;22.90;;
76814;SDS011;65768;49.906;19.384;2022-12-20T15:56:54;61.20;;;22.90;;
76814;SDS011;65768;49.906;19.384;2022-12-20T15:59:24;66.00;;;24.00;;
76814;SDS011;65768;49.906;19.384;2022-12-20T16:01:52;62.00;;;25.70;;
76814;SDS011;65768;49.906;19.384;2022-12-20T16:04:21;60.10;;;25.40;;
76814;SDS011;65768;49.906;19.384;2022-12-20T16:06:50;60.90;;;26.30;;
76814;SDS011;65768;49.906;19.384;2022-12-20T16:09:22;63.90;;;25.70;;
76814;SDS011;65768;49.906;19.384;2022-12-20T16:11:52;74.20;;;32.30;;
76814;SDS011;65768;49.906;19.384;2022-12-20T16:14:21;95.80;;;40.50;;
76814;SDS011;65768;49.906;19.384;2022-12-20T16:16:49;82.90;;;37.70;;
76814;SDS011;65768;49.906;19.384;2022-12-20T16:19:18;85.90;;;38.40;;
76814;SDS011;65768;49.906;19.384;2022-12-20T16:21:48;89.40;;;38.30;;
76814;SDS011;65768;49.906;19.384;2022-12-20T16:24:18;100.70;;;45.60;;
76814;SDS011;65768;49.906;19.384;2022-12-20T16:26:47;92.10;;;44.30;;
76814;SDS011;65768;49.906;19.384;2022-12-20T16:29:16;88.10;;;39.80;;
76814;SDS011;65768;49.906;19.384;2022-12-20T16:31:44;85.90;;;37.30;;
76814;SDS011;65768;49.906;19.384;2022-12-20T16:34:14;77.50;;;33.90;;
76814;SDS011;65768;49.906;19.384;2022-12-20T16:36:43;82.80;;;34.00;;
76814;SDS011;65768;49.906;19.384;2022-12-20T16:39:12;88.30;;;38.40;;
76814;SDS011;65768;49.906;19.384;2022-12-20T16:41:41;75.30;;;32.90;;
76814;SDS011;65768;49.906;19.384;2022-12-20T16:44:14;66.70;;;27.70;;
76814;SDS011;65768;49.906;19.384;2022-12-20T16:46:43;71.30;;;29.80;;